TRA109B EHAM-LEMG

Flight info

Callsign TRA109B
Flight time 2h 49m
Altitude 35000
Route WOODY N872 MEDIL DCT KOVIN DCT DUCRA DCT RESMI DCT DEKOD DCT DISAK DCT ARKIP DCT ARNAV DCT LMG DCT UVELI DCT OSMOB DCT ARVID/N0440F370 DCT PPN DCT NOLSA DCT ALEPO DCT VASUM N10 BAN DCT GOTOR DCT KAMPO DCT MONTO DCT CRISA DCT VULPE
Aircraft A21N/M-SBDE2E3FGHIJ1J5M1P2RWXYZ/LB1D1G1

Departure

Time 2026-04-11 08:19
Airport Amsterdam Airport Schiphol (EHAM)

Arrival

Time 2026-04-11 11:08
Airport Málaga-Costa del Sol Airport (LEMG)
Time Latitude Longitude Altitude Speed Heading
2026-04-11 07:51 52.30458 4.76714 4 ft 0 kts 334°
2026-04-11 08:09 52.30457 4.76715 32 ft 1 kts 334°
2026-04-11 08:09 52.30435 4.76728 4 ft 4 kts 341°
2026-04-11 08:09 52.30413 4.76745 4 ft 4 kts 315°
2026-04-11 08:10 52.30404 4.76779 4 ft 4 kts 262°
2026-04-11 08:10 52.30410 4.76813 4 ft 0 kts 247°
2026-04-11 08:13 52.30409 4.76811 4 ft 1 kts 244°
2026-04-11 08:13 52.30399 4.76786 4 ft 4 kts 236°
2026-04-11 08:13 52.30376 4.76738 4 ft 7 kts 226°
2026-04-11 08:14 52.30321 4.76732 4 ft 11 kts 141°
2026-04-11 08:14 52.30326 4.76860 4 ft 14 kts 54°
2026-04-11 08:14 52.30384 4.77012 4 ft 17 kts 58°
2026-04-11 08:14 52.30455 4.77196 4 ft 21 kts 56°
2026-04-11 08:15 52.30536 4.77403 4 ft 23 kts 58°
2026-04-11 08:15 52.30650 4.77582 4 ft 24 kts 13°
2026-04-11 08:15 52.30819 4.77597 4 ft 25 kts
2026-04-11 08:15 52.30996 4.77620 4 ft 26 kts
2026-04-11 08:16 52.31179 4.77633 4 ft 27 kts
2026-04-11 08:16 52.31369 4.77648 4 ft 26 kts
2026-04-11 08:16 52.31497 4.77578 4 ft 16 kts 317°
2026-04-11 08:16 52.31586 4.77621 4 ft 17 kts 81°
2026-04-11 08:17 52.31590 4.77821 5 ft 18 kts 83°
2026-04-11 08:17 52.31580 4.77949 6 ft 12 kts 144°
2026-04-11 08:17 52.31520 4.77959 7 ft 0 kts 183°
2026-04-11 08:18 52.31502 4.77957 7 ft 18 kts 182°
2026-04-11 08:18 52.31133 4.77922 2 ft 85 kts 180°
2026-04-11 08:19 52.30353 4.77853 6 ft 137 kts 182°
2026-04-11 08:19 52.29342 4.77734 378 ft 141 kts 179°
2026-04-11 08:19 52.28338 4.77718 780 ft 148 kts 165°
2026-04-11 08:19 52.27379 4.78327 1335 ft 150 kts 157°
2026-04-11 08:20 52.26381 4.78870 1943 ft 158 kts 163°
2026-04-11 08:20 52.25255 4.79229 2495 ft 173 kts 169°
2026-04-11 08:20 52.24023 4.79661 3024 ft 189 kts 165°
2026-04-11 08:20 52.22674 4.80239 3400 ft 213 kts 165°
2026-04-11 08:21 52.21151 4.80726 3828 ft 233 kts 176°
2026-04-11 08:21 52.19492 4.80596 4490 ft 243 kts 184°
2026-04-11 08:21 52.17791 4.80331 5245 ft 247 kts 185°
2026-04-11 08:21 52.16080 4.80071 6075 ft 248 kts 185°
2026-04-11 08:22 52.14359 4.79817 6855 ft 249 kts 186°
2026-04-11 08:22 52.12621 4.79566 7620 ft 252 kts 186°
2026-04-11 08:22 52.10857 4.79314 8396 ft 256 kts 187°
2026-04-11 08:22 52.09073 4.79061 9175 ft 260 kts 187°
2026-04-11 08:23 52.07257 4.78805 9947 ft 264 kts 188°
2026-04-11 08:23 52.05359 4.78534 10310 ft 284 kts 188°
2026-04-11 08:23 52.03344 4.78249 10594 ft 303 kts 187°
2026-04-11 08:23 52.01197 4.77948 11094 ft 314 kts 187°
2026-04-11 08:24 51.99008 4.77645 11756 ft 318 kts 187°
2026-04-11 08:24 51.96782 4.77337 12463 ft 322 kts 187°
2026-04-11 08:24 51.94532 4.77026 13147 ft 326 kts 187°
2026-04-11 08:24 51.92277 4.76479 13789 ft 328 kts 198°
2026-04-11 08:25 51.90157 4.75089 14390 ft 330 kts 207°
2026-04-11 08:25 51.88080 4.73433 15017 ft 333 kts 208°
2026-04-11 08:25 51.86021 4.71777 15639 ft 335 kts 208°
2026-04-11 08:25 51.83920 4.70105 16265 ft 338 kts 208°
2026-04-11 08:26 51.81798 4.68433 16884 ft 341 kts 208°
2026-04-11 08:26 51.79656 4.66759 17482 ft 343 kts 208°
2026-04-11 08:26 51.77497 4.65080 18054 ft 346 kts 208°
2026-04-11 08:26 51.75317 4.63389 18543 ft 349 kts 208°
2026-04-11 08:27 51.73126 4.61688 19015 ft 351 kts 208°
2026-04-11 08:27 51.70919 4.59977 19490 ft 352 kts 208°
2026-04-11 08:27 51.68704 4.58262 19981 ft 354 kts 208°
2026-04-11 08:27 51.66478 4.56543 20428 ft 356 kts 208°
2026-04-11 08:28 51.64238 4.54820 20863 ft 358 kts 208°
2026-04-11 08:28 51.61985 4.53079 21283 ft 360 kts 208°
2026-04-11 08:28 51.59723 4.51332 21684 ft 362 kts 208°
2026-04-11 08:28 51.57439 4.49565 22059 ft 364 kts 208°
2026-04-11 08:29 51.55139 4.47794 22406 ft 366 kts 208°
2026-04-11 08:29 51.52834 4.46028 22733 ft 368 kts 208°
2026-04-11 08:29 51.50516 4.44251 23035 ft 370 kts 208°
2026-04-11 08:29 51.48213 4.42486 23279 ft 371 kts 209°
2026-04-11 08:30 51.45880 4.40701 23535 ft 372 kts 209°
2026-04-11 08:30 51.43538 4.38901 23742 ft 373 kts 209°
2026-04-11 08:30 51.41198 4.37113 23925 ft 373 kts 209°
2026-04-11 08:30 51.38849 4.35325 24164 ft 375 kts 209°
2026-04-11 08:31 51.36484 4.33522 24561 ft 377 kts 209°
2026-04-11 08:31 51.34112 4.31719 24965 ft 378 kts 209°
2026-04-11 08:31 51.31727 4.29907 25356 ft 379 kts 209°
2026-04-11 08:31 51.29334 4.28087 25744 ft 381 kts 209°
2026-04-11 08:32 51.26940 4.26272 26124 ft 382 kts 210°
2026-04-11 08:32 51.24529 4.24440 26482 ft 384 kts 210°
2026-04-11 08:32 51.22119 4.22611 26840 ft 385 kts 210°
2026-04-11 08:32 51.19714 4.20801 27187 ft 386 kts 210°
2026-04-11 08:33 51.17277 4.18974 27527 ft 388 kts 209°
2026-04-11 08:33 51.14745 4.17383 27854 ft 392 kts 204°
2026-04-11 08:33 51.12162 4.15949 28172 ft 394 kts 204°
2026-04-11 08:33 51.09558 4.14530 28492 ft 396 kts 204°
2026-04-11 08:34 51.06949 4.13111 28802 ft 397 kts 204°
2026-04-11 08:34 51.04335 4.11696 29112 ft 399 kts 204°
2026-04-11 08:34 51.01700 4.10270 29412 ft 400 kts 204°
2026-04-11 08:34 50.99058 4.08838 29713 ft 402 kts 204°
2026-04-11 08:35 50.96411 4.07398 29988 ft 403 kts 204°
2026-04-11 08:35 50.93753 4.05951 30239 ft 404 kts 204°
2026-04-11 08:35 50.91083 4.04497 30492 ft 405 kts 204°
2026-04-11 08:35 50.88412 4.03038 30733 ft 406 kts 205°
2026-04-11 08:36 50.85789 4.01415 30981 ft 405 kts 207°
2026-04-11 08:36 50.83181 3.99740 31278 ft 404 kts 207°
2026-04-11 08:36 50.80613 3.98090 31559 ft 403 kts 207°
2026-04-11 08:36 50.78014 3.96427 31823 ft 403 kts 207°
2026-04-11 08:37 50.75416 3.94770 32118 ft 402 kts 207°
2026-04-11 08:37 50.72828 3.93118 32428 ft 400 kts 207°
2026-04-11 08:37 50.70253 3.91478 32721 ft 399 kts 207°
2026-04-11 08:37 50.67685 3.89846 33013 ft 397 kts 207°
2026-04-11 08:38 50.65122 3.88222 33318 ft 396 kts 207°
2026-04-11 08:38 50.62574 3.86604 33584 ft 394 kts 207°
2026-04-11 08:38 50.60035 3.84994 33845 ft 393 kts 207°
2026-04-11 08:38 50.57503 3.83371 34027 ft 391 kts 208°
2026-04-11 08:39 50.55003 3.81677 34165 ft 391 kts 208°
2026-04-11 08:39 50.52503 3.79973 34321 ft 391 kts 208°
2026-04-11 08:39 50.50002 3.78261 34482 ft 391 kts 208°
2026-04-11 08:39 50.47537 3.76574 34651 ft 391 kts 208°
2026-04-11 08:40 50.45048 3.74876 34815 ft 390 kts 208°
2026-04-11 08:40 50.42551 3.73180 34852 ft 391 kts 208°
2026-04-11 08:40 50.37572 3.69797 34837 ft 390 kts 208°
2026-04-11 08:41 50.32575 3.66408 34818 ft 392 kts 208°
2026-04-11 08:41 50.27571 3.63030 34819 ft 392 kts 207°
2026-04-11 08:42 50.22587 3.59688 34823 ft 392 kts 207°
2026-04-11 08:43 50.15062 3.54628 34822 ft 393 kts 207°
2026-04-11 08:43 50.10010 3.51246 34812 ft 397 kts 207°
2026-04-11 08:44 50.04956 3.47870 34825 ft 396 kts 207°
2026-04-11 08:44 49.99884 3.44498 34815 ft 396 kts 207°
2026-04-11 08:45 49.94806 3.41114 34815 ft 397 kts 207°
2026-04-11 08:45 49.89725 3.37731 34803 ft 399 kts 206°
2026-04-11 08:46 49.84637 3.34362 34815 ft 399 kts 206°
2026-04-11 08:46 49.79520 3.30969 34815 ft 400 kts 206°
2026-04-11 08:47 49.74412 3.27579 34816 ft 399 kts 206°
2026-04-11 08:47 49.69301 3.24201 34787 ft 400 kts 206°
2026-04-11 08:48 49.64148 3.20829 34801 ft 401 kts 206°
2026-04-11 08:48 49.59013 3.17464 34802 ft 401 kts 206°
2026-04-11 08:49 49.53868 3.14102 34807 ft 402 kts 206°
2026-04-11 08:49 49.48806 3.10710 34814 ft 395 kts 209°
2026-04-11 08:50 49.44134 3.06230 34807 ft 397 kts 215°
2026-04-11 08:50 49.39556 3.01518 34809 ft 396 kts 214°
2026-04-11 08:51 49.34952 2.96842 34808 ft 397 kts 214°
2026-04-11 08:51 49.30323 2.92158 34813 ft 396 kts 214°
2026-04-11 08:52 49.23427 2.85212 34813 ft 399 kts 214°
2026-04-11 08:52 49.18786 2.80542 34815 ft 398 kts 214°
2026-04-11 08:53 49.14937 2.76682 34819 ft 398 kts 214°
2026-04-11 08:53 49.10308 2.72038 34821 ft 398 kts 214°
2026-04-11 08:54 49.05667 2.67383 34818 ft 398 kts 214°
2026-04-11 08:54 49.01012 2.62730 34836 ft 400 kts 214°
2026-04-11 08:55 48.96398 2.58145 34821 ft 397 kts 213°
2026-04-11 08:55 48.91770 2.53553 34823 ft 397 kts 213°
2026-04-11 08:56 48.87149 2.48966 34823 ft 397 kts 214°
2026-04-11 08:56 48.82551 2.44425 34820 ft 397 kts 213°
2026-04-11 08:57 48.77924 2.39856 34823 ft 397 kts 213°
2026-04-11 08:57 48.73287 2.35305 34817 ft 397 kts 213°
2026-04-11 08:58 48.68652 2.30754 34822 ft 397 kts 213°
2026-04-11 08:58 48.64017 2.26204 34817 ft 397 kts 213°
2026-04-11 08:59 48.59380 2.21679 34817 ft 397 kts 213°
2026-04-11 08:59 48.54348 2.18343 34821 ft 401 kts 197°
2026-04-11 09:00 48.48882 2.16579 34832 ft 401 kts 194°
2026-04-11 09:00 48.43409 2.14853 34848 ft 400 kts 195°
2026-04-11 09:01 48.37984 2.13115 34827 ft 399 kts 195°
2026-04-11 09:01 48.32585 2.11376 34830 ft 399 kts 195°
2026-04-11 09:02 48.27055 2.10327 34831 ft 405 kts 182°
2026-04-11 09:02 48.21422 2.11389 34838 ft 409 kts 176°
2026-04-11 09:03 48.15791 2.12645 34839 ft 408 kts 177°
2026-04-11 09:03 48.10189 2.12653 34845 ft 401 kts 190°
2026-04-11 09:04 48.04703 2.11548 34845 ft 400 kts 191°
2026-04-11 09:04 47.99180 2.10455 34836 ft 400 kts 191°
2026-04-11 09:05 47.93665 2.09391 34845 ft 399 kts 191°
2026-04-11 09:05 47.88163 2.08343 34845 ft 399 kts 191°
2026-04-11 09:06 47.82660 2.07295 34846 ft 399 kts 191°
2026-04-11 09:06 47.77186 2.06261 34836 ft 398 kts 190°
2026-04-11 09:07 47.71710 2.05223 34846 ft 396 kts 190°
2026-04-11 09:07 47.66244 2.04185 34852 ft 396 kts 190°
2026-04-11 09:08 47.60913 2.02349 34851 ft 393 kts 202°
2026-04-11 09:08 47.55840 1.99336 34849 ft 395 kts 202°
2026-04-11 09:09 47.50729 1.96341 34859 ft 395 kts 202°
2026-04-11 09:09 47.45604 1.93377 34860 ft 395 kts 202°
2026-04-11 09:10 47.40519 1.90446 34863 ft 395 kts 202°
2026-04-11 09:10 47.35395 1.87492 34846 ft 397 kts 202°
2026-04-11 09:11 47.30226 1.84518 34844 ft 398 kts 202°
2026-04-11 09:11 47.25047 1.81550 34850 ft 398 kts 202°
2026-04-11 09:12 47.19906 1.78615 34852 ft 398 kts 202°
2026-04-11 09:12 47.14723 1.75688 34846 ft 401 kts 202°
2026-04-11 09:13 47.09504 1.72765 34867 ft 401 kts 202°
2026-04-11 09:13 47.04289 1.69849 34872 ft 401 kts 202°
2026-04-11 09:14 46.99069 1.66926 34874 ft 401 kts 202°
2026-04-11 09:14 46.93851 1.63999 34866 ft 404 kts 202°
2026-04-11 09:15 46.88635 1.61079 34884 ft 403 kts 202°
2026-04-11 09:15 46.83400 1.58156 34879 ft 403 kts 202°
2026-04-11 09:16 46.78160 1.55249 34875 ft 403 kts 202°
2026-04-11 09:16 46.72920 1.52339 34876 ft 403 kts 201°
2026-04-11 09:17 46.67671 1.49437 34884 ft 403 kts 201°
2026-04-11 09:17 46.62423 1.46528 34885 ft 403 kts 201°
2026-04-11 09:18 46.57217 1.43654 34890 ft 403 kts 201°
2026-04-11 09:18 46.51948 1.40756 34884 ft 407 kts 201°
2026-04-11 09:19 46.46651 1.37844 34892 ft 406 kts 201°
2026-04-11 09:19 46.41362 1.34953 34896 ft 406 kts 201°
2026-04-11 09:20 46.36064 1.32069 34889 ft 406 kts 201°
2026-04-11 09:20 46.30800 1.29179 34901 ft 407 kts 201°
2026-04-11 09:21 46.25498 1.26271 34911 ft 407 kts 201°
2026-04-11 09:21 46.20189 1.23381 34921 ft 407 kts 201°
2026-04-11 09:22 46.14884 1.20509 34922 ft 407 kts 201°
2026-04-11 09:22 46.09598 1.17649 34948 ft 407 kts 201°
2026-04-11 09:23 46.04303 1.14788 34953 ft 406 kts 201°
2026-04-11 09:23 45.99005 1.11932 34961 ft 406 kts 201°
2026-04-11 09:24 45.93703 1.09077 34955 ft 406 kts 201°
2026-04-11 09:24 45.88404 1.06225 34963 ft 406 kts 201°
2026-04-11 09:25 45.83154 1.03349 34962 ft 406 kts 204°
2026-04-11 09:25 45.78431 0.98909 34960 ft 407 kts 219°
2026-04-11 09:26 45.74112 0.93662 34941 ft 407 kts 219°
2026-04-11 09:26 45.69776 0.88442 34944 ft 407 kts 219°
2026-04-11 09:27 45.65434 0.83246 34944 ft 407 kts 219°
2026-04-11 09:27 45.61115 0.78097 34947 ft 407 kts 218°
2026-04-11 09:28 45.56761 0.72941 34937 ft 405 kts 218°
2026-04-11 09:28 45.52426 0.67786 34950 ft 406 kts 218°
2026-04-11 09:29 45.48077 0.62633 34952 ft 406 kts 218°
2026-04-11 09:29 45.43710 0.57510 34960 ft 407 kts 218°
2026-04-11 09:30 45.39358 0.52366 34960 ft 407 kts 218°
2026-04-11 09:30 45.34986 0.47216 34959 ft 409 kts 218°
2026-04-11 09:31 45.30624 0.42084 34966 ft 409 kts 218°
2026-04-11 09:31 45.26241 0.36945 34980 ft 409 kts 218°
2026-04-11 09:32 45.21845 0.31815 34972 ft 408 kts 218°
2026-04-11 09:32 45.17454 0.26693 34961 ft 411 kts 218°
2026-04-11 09:33 45.13026 0.21528 34971 ft 412 kts 218°
2026-04-11 09:33 45.08593 0.16371 34972 ft 412 kts 218°
2026-04-11 09:34 45.04162 0.11236 34978 ft 412 kts 218°
2026-04-11 09:34 44.99757 0.06139 34979 ft 411 kts 218°
2026-04-11 09:35 44.95293 0.00996 34981 ft 415 kts 218°
2026-04-11 09:35 44.90831 -0.04147 34988 ft 413 kts 218°
2026-04-11 09:36 44.86376 -0.09286 34982 ft 413 kts 218°
2026-04-11 09:36 44.81945 -0.14372 34982 ft 413 kts 218°
2026-04-11 09:37 44.77475 -0.19480 34988 ft 413 kts 218°
2026-04-11 09:37 44.73006 -0.24591 34987 ft 413 kts 218°
2026-04-11 09:38 44.68538 -0.29688 34991 ft 413 kts 218°
2026-04-11 09:38 44.63946 -0.34522 34992 ft 412 kts 209°
2026-04-11 09:39 44.58915 -0.38282 34997 ft 411 kts 207°
2026-04-11 09:39 44.53831 -0.41993 34994 ft 411 kts 207°
2026-04-11 09:40 44.48752 -0.45708 34996 ft 411 kts 207°
2026-04-11 09:40 44.43670 -0.49426 34998 ft 411 kts 207°
2026-04-11 09:41 44.38587 -0.53131 34999 ft 412 kts 207°
2026-04-11 09:41 44.33506 -0.56842 35003 ft 412 kts 207°
2026-04-11 09:42 44.28454 -0.60534 35005 ft 412 kts 207°
2026-04-11 09:43 44.20823 -0.66094 35020 ft 412 kts 207°
2026-04-11 09:43 44.15730 -0.69789 35027 ft 413 kts 207°
2026-04-11 09:44 44.10636 -0.73472 35034 ft 413 kts 207°
2026-04-11 09:44 44.06397 -0.76531 35049 ft 413 kts 207°
2026-04-11 09:45 44.01311 -0.80192 35034 ft 411 kts 206°
2026-04-11 09:45 43.96219 -0.83858 35043 ft 412 kts 206°
2026-04-11 09:46 43.91131 -0.87511 35044 ft 412 kts 206°
2026-04-11 09:46 43.86046 -0.91153 35041 ft 412 kts 206°
2026-04-11 09:47 43.80959 -0.94794 35044 ft 412 kts 206°
2026-04-11 09:47 43.75856 -0.98436 35051 ft 412 kts 206°
2026-04-11 09:48 43.70754 -1.02071 35053 ft 412 kts 206°
2026-04-11 09:48 43.65657 -1.05695 35053 ft 412 kts 206°
2026-04-11 09:49 43.60557 -1.09314 35049 ft 412 kts 207°
2026-04-11 09:49 43.55496 -1.12897 35064 ft 412 kts 207°
2026-04-11 09:50 43.50390 -1.16505 35070 ft 413 kts 207°
2026-04-11 09:50 43.45273 -1.20114 35070 ft 413 kts 207°
2026-04-11 09:51 43.40148 -1.23727 35071 ft 414 kts 207°
2026-04-11 09:51 43.35019 -1.27337 35076 ft 414 kts 207°
2026-04-11 09:52 43.29884 -1.30938 35078 ft 414 kts 207°
2026-04-11 09:52 43.24757 -1.34526 35075 ft 414 kts 207°
2026-04-11 09:53 43.19624 -1.38113 35071 ft 414 kts 207°
2026-04-11 09:53 43.14492 -1.41691 35068 ft 414 kts 207°
2026-04-11 09:54 43.09357 -1.45268 35064 ft 414 kts 207°
2026-04-11 09:54 43.04263 -1.48819 35063 ft 414 kts 207°
2026-04-11 09:55 42.99127 -1.52390 35049 ft 415 kts 208°
2026-04-11 09:55 42.93965 -1.55973 35061 ft 417 kts 208°
2026-04-11 09:56 42.88791 -1.59560 35010 ft 417 kts 208°
2026-04-11 09:56 42.83620 -1.63138 34993 ft 417 kts 208°
2026-04-11 09:57 42.78448 -1.66710 34992 ft 417 kts 208°
2026-04-11 09:57 42.73272 -1.70279 34994 ft 417 kts 208°
2026-04-11 09:58 42.68080 -1.73789 34994 ft 417 kts 208°
2026-04-11 09:58 42.62882 -1.77274 35000 ft 417 kts 208°
2026-04-11 09:59 42.57676 -1.80769 34997 ft 418 kts 208°
2026-04-11 09:59 42.52461 -1.84267 35010 ft 418 kts 208°
2026-04-11 10:00 42.47247 -1.87751 35013 ft 417 kts 208°
2026-04-11 10:00 42.42046 -1.91228 35016 ft 417 kts 208°
2026-04-11 10:01 42.36854 -1.94689 34995 ft 418 kts 208°
2026-04-11 10:01 42.31630 -1.98164 34999 ft 418 kts 208°
2026-04-11 10:02 42.26444 -2.01616 34999 ft 418 kts 208°
2026-04-11 10:02 42.21183 -2.05097 34992 ft 418 kts 208°
2026-04-11 10:03 42.15948 -2.08552 34977 ft 421 kts 208°
2026-04-11 10:03 42.10699 -2.12019 34985 ft 420 kts 208°
2026-04-11 10:04 42.05482 -2.15458 34978 ft 420 kts 207°
2026-04-11 10:04 42.00231 -2.18912 34967 ft 420 kts 207°
2026-04-11 10:05 41.94977 -2.22361 34968 ft 420 kts 207°
2026-04-11 10:05 41.89729 -2.25799 34960 ft 419 kts 207°
2026-04-11 10:06 41.84486 -2.29228 34966 ft 419 kts 207°
2026-04-11 10:06 41.79229 -2.32662 34954 ft 421 kts 207°
2026-04-11 10:07 41.73964 -2.36093 34945 ft 421 kts 207°
2026-04-11 10:07 41.68684 -2.39523 34945 ft 422 kts 207°
2026-04-11 10:08 41.63401 -2.42962 34941 ft 422 kts 207°
2026-04-11 10:08 41.58118 -2.46378 34938 ft 422 kts 207°
2026-04-11 10:09 41.52833 -2.49793 34937 ft 422 kts 207°
2026-04-11 10:09 41.47548 -2.53209 34941 ft 423 kts 206°
2026-04-11 10:10 41.42253 -2.56629 34942 ft 423 kts 206°
2026-04-11 10:10 41.36955 -2.60032 34941 ft 422 kts 206°
2026-04-11 10:11 41.31764 -2.63547 34932 ft 421 kts 213°
2026-04-11 10:11 41.26948 -2.67929 34938 ft 419 kts 216°
2026-04-11 10:12 41.22143 -2.72374 34940 ft 422 kts 215°
2026-04-11 10:12 41.17322 -2.76815 34939 ft 422 kts 215°
2026-04-11 10:13 41.12491 -2.81242 34937 ft 422 kts 215°
2026-04-11 10:13 41.07662 -2.85663 34938 ft 421 kts 215°
2026-04-11 10:14 41.02849 -2.90062 34938 ft 420 kts 215°
2026-04-11 10:14 40.98040 -2.94445 34938 ft 420 kts 215°
2026-04-11 10:15 40.93234 -2.98827 34937 ft 420 kts 215°
2026-04-11 10:15 40.88419 -3.03202 34937 ft 420 kts 215°
2026-04-11 10:16 40.83602 -3.07573 34934 ft 422 kts 214°
2026-04-11 10:16 40.78740 -3.11973 34935 ft 425 kts 215°
2026-04-11 10:17 40.73860 -3.16381 34937 ft 425 kts 214°
2026-04-11 10:17 40.68986 -3.20777 34942 ft 425 kts 215°
2026-04-11 10:18 40.64105 -3.25175 34950 ft 425 kts 214°
2026-04-11 10:18 40.59243 -3.29546 34956 ft 425 kts 214°
2026-04-11 10:19 40.54363 -3.33933 34962 ft 424 kts 214°
2026-04-11 10:19 40.49495 -3.38298 34964 ft 424 kts 214°
2026-04-11 10:20 40.44626 -3.42652 34964 ft 424 kts 214°
2026-04-11 10:20 40.39721 -3.47030 34962 ft 429 kts 214°
2026-04-11 10:21 40.34789 -3.51424 34959 ft 429 kts 214°
2026-04-11 10:21 40.29850 -3.55819 34959 ft 429 kts 214°
2026-04-11 10:22 40.24917 -3.60199 34962 ft 427 kts 214°
2026-04-11 10:22 40.19995 -3.64566 34962 ft 428 kts 214°
2026-04-11 10:23 40.15065 -3.68928 34958 ft 428 kts 214°
2026-04-11 10:23 40.10130 -3.73293 34950 ft 428 kts 214°
2026-04-11 10:24 40.05190 -3.77642 34932 ft 428 kts 214°
2026-04-11 10:24 40.00223 -3.82010 34936 ft 432 kts 214°
2026-04-11 10:25 39.95258 -3.86375 34925 ft 433 kts 214°
2026-04-11 10:25 39.90275 -3.90747 34924 ft 432 kts 214°
2026-04-11 10:26 39.85284 -3.95114 34926 ft 432 kts 214°
2026-04-11 10:26 39.80295 -3.99475 34926 ft 432 kts 214°
2026-04-11 10:27 39.75306 -4.03824 34930 ft 430 kts 214°
2026-04-11 10:27 39.70355 -4.08136 34930 ft 428 kts 213°
2026-04-11 10:28 39.65422 -4.12420 34927 ft 426 kts 213°
2026-04-11 10:28 39.60524 -4.16671 34927 ft 426 kts 213°
2026-04-11 10:29 39.55594 -4.20938 34928 ft 426 kts 213°
2026-04-11 10:29 39.50662 -4.25203 34927 ft 426 kts 213°
2026-04-11 10:30 39.45737 -4.29448 34927 ft 424 kts 213°
2026-04-11 10:30 39.40837 -4.33667 34928 ft 423 kts 213°
2026-04-11 10:31 39.35936 -4.37879 34935 ft 423 kts 213°
2026-04-11 10:31 39.31045 -4.42081 34932 ft 423 kts 213°
2026-04-11 10:32 39.26144 -4.46279 34936 ft 422 kts 212°
2026-04-11 10:32 39.21025 -4.49813 34933 ft 416 kts 197°
2026-04-11 10:33 39.15362 -4.51224 34936 ft 415 kts 188°
2026-04-11 10:33 39.09648 -4.52348 34941 ft 415 kts 188°
2026-04-11 10:34 39.03941 -4.53537 34938 ft 416 kts 189°
2026-04-11 10:34 38.98254 -4.54725 34944 ft 412 kts 187°
2026-04-11 10:35 38.93544 -4.55713 34944 ft 412 kts 188°
2026-04-11 10:35 38.87885 -4.56898 34944 ft 412 kts 187°
2026-04-11 10:36 38.82200 -4.58087 34935 ft 418 kts 188°
2026-04-11 10:36 38.76415 -4.59290 34951 ft 422 kts 188°
2026-04-11 10:37 38.70626 -4.60492 34947 ft 421 kts 188°
2026-04-11 10:37 38.64835 -4.61687 34948 ft 421 kts 188°
2026-04-11 10:38 38.59049 -4.62883 34947 ft 421 kts 188°
2026-04-11 10:38 38.50287 -4.64695 34958 ft 429 kts 188°
2026-04-11 10:39 38.44388 -4.65912 34956 ft 430 kts 188°
2026-04-11 10:39 38.38524 -4.67125 34948 ft 430 kts 188°
2026-04-11 10:40 38.32614 -4.68342 34952 ft 430 kts 188°
2026-04-11 10:40 38.26708 -4.69554 34956 ft 430 kts 188°
2026-04-11 10:41 38.20793 -4.70763 34959 ft 430 kts 188°
2026-04-11 10:41 38.14875 -4.71977 34957 ft 430 kts 188°
2026-04-11 10:42 38.08964 -4.73186 34966 ft 432 kts 188°
2026-04-11 10:42 38.03029 -4.74393 34963 ft 431 kts 187°
2026-04-11 10:43 37.94168 -4.76195 34982 ft 433 kts 187°
2026-04-11 10:44 37.88218 -4.77406 34994 ft 433 kts 187°
2026-04-11 10:44 37.82294 -4.78611 34663 ft 427 kts 187°
2026-04-11 10:44 37.79346 -4.79315 33657 ft 435 kts 193°
2026-04-11 10:45 37.76537 -4.80837 32733 ft 443 kts 209°
2026-04-11 10:45 37.74141 -4.83305 32025 ft 447 kts 223°
2026-04-11 10:45 37.72234 -4.86334 31433 ft 446 kts 231°
2026-04-11 10:45 37.70467 -4.89533 30822 ft 442 kts 230°
2026-04-11 10:46 37.68442 -4.92380 30198 ft 430 kts 215°
2026-04-11 10:46 37.65960 -4.94363 29565 ft 416 kts 200°
2026-04-11 10:46 37.63251 -4.95467 28885 ft 406 kts 187°
2026-04-11 10:46 37.60472 -4.96018 28162 ft 403 kts 185°
2026-04-11 10:47 37.57704 -4.96491 27433 ft 401 kts 185°
2026-04-11 10:47 37.54946 -4.96981 26778 ft 400 kts 185°
2026-04-11 10:47 37.52201 -4.97492 26148 ft 397 kts 185°
2026-04-11 10:47 37.49482 -4.98010 25541 ft 394 kts 185°
2026-04-11 10:48 37.46781 -4.98529 24951 ft 392 kts 186°
2026-04-11 10:48 37.44087 -4.99053 24372 ft 389 kts 186°
2026-04-11 10:48 37.41416 -4.99571 23798 ft 387 kts 186°
2026-04-11 10:48 37.38763 -5.00079 23157 ft 384 kts 186°
2026-04-11 10:49 37.36127 -5.00585 22491 ft 382 kts 186°
2026-04-11 10:49 37.33500 -5.01090 21784 ft 381 kts 186°
2026-04-11 10:49 37.30873 -5.01596 21087 ft 380 kts 186°
2026-04-11 10:49 37.28266 -5.02098 20450 ft 379 kts 186°
2026-04-11 10:50 37.25703 -5.02451 20058 ft 369 kts 179°
2026-04-11 10:50 37.23183 -5.02441 19832 ft 356 kts 177°
2026-04-11 10:50 37.20752 -5.02400 19608 ft 344 kts 177°
2026-04-11 10:50 37.18363 -5.02358 19110 ft 343 kts 177°
2026-04-11 10:51 37.15974 -5.02318 18563 ft 344 kts 177°
2026-04-11 10:51 37.13579 -5.02281 17999 ft 344 kts 177°
2026-04-11 10:51 37.11188 -5.02244 17436 ft 344 kts 178°
2026-04-11 10:51 37.08799 -5.02210 16934 ft 342 kts 178°
2026-04-11 10:52 37.06432 -5.02177 16424 ft 340 kts 178°
2026-04-11 10:52 37.04061 -5.02144 15908 ft 339 kts 178°
2026-04-11 10:52 37.01718 -5.02109 15507 ft 335 kts 178°
2026-04-11 10:52 36.99401 -5.02078 15173 ft 330 kts 178°
2026-04-11 10:53 36.97137 -5.02048 14882 ft 328 kts 178°
2026-04-11 10:53 36.94869 -5.01988 14596 ft 324 kts 173°
2026-04-11 10:53 36.92727 -5.01317 14309 ft 314 kts 150°
2026-04-11 10:53 36.91016 -4.99723 14046 ft 303 kts 132°
2026-04-11 10:54 36.89561 -4.97851 13789 ft 299 kts 129°
2026-04-11 10:54 36.88136 -4.95967 13513 ft 296 kts 130°
2026-04-11 10:54 36.86721 -4.94126 13253 ft 292 kts 131°
2026-04-11 10:54 36.85275 -4.92264 12997 ft 301 kts 132°
2026-04-11 10:55 36.83813 -4.90398 12728 ft 300 kts 132°
2026-04-11 10:55 36.82349 -4.88545 12462 ft 298 kts 132°
2026-04-11 10:55 36.80896 -4.86711 12191 ft 296 kts 133°
2026-04-11 10:55 36.79431 -4.84955 11931 ft 295 kts 135°
2026-04-11 10:56 36.77921 -4.83227 11664 ft 293 kts 135°
2026-04-11 10:56 36.76415 -4.81519 11403 ft 292 kts 136°
2026-04-11 10:56 36.74916 -4.79819 11140 ft 291 kts 136°
2026-04-11 10:56 36.73427 -4.78127 10878 ft 289 kts 136°
2026-04-11 10:57 36.71946 -4.76448 10619 ft 287 kts 136°
2026-04-11 10:57 36.70468 -4.74771 10359 ft 286 kts 136°
2026-04-11 10:57 36.69002 -4.73107 10101 ft 284 kts 136°
2026-04-11 10:57 36.67548 -4.71459 9844 ft 282 kts 136°
2026-04-11 10:58 36.66100 -4.69818 9567 ft 281 kts 136°
2026-04-11 10:58 36.64670 -4.68200 9354 ft 281 kts 135°
2026-04-11 10:58 36.63225 -4.66566 9110 ft 280 kts 135°
2026-04-11 10:58 36.61787 -4.64939 8780 ft 278 kts 135°
2026-04-11 10:59 36.60352 -4.63317 8378 ft 278 kts 135°
2026-04-11 10:59 36.58920 -4.61701 7960 ft 278 kts 135°
2026-04-11 10:59 36.57486 -4.60084 7537 ft 278 kts 135°
2026-04-11 10:59 36.56051 -4.58468 7113 ft 278 kts 135°
2026-04-11 11:00 36.54610 -4.56867 6703 ft 277 kts 135°
2026-04-11 11:00 36.53353 -4.55086 6283 ft 272 kts 118°
2026-04-11 11:00 36.52630 -4.52934 5853 ft 269 kts 106°
2026-04-11 11:00 36.52055 -4.50727 5416 ft 268 kts 106°
2026-04-11 11:01 36.51478 -4.48528 5003 ft 267 kts 106°
2026-04-11 11:01 36.50898 -4.46361 4582 ft 266 kts 107°
2026-04-11 11:01 36.50303 -4.44182 4148 ft 266 kts 107°
2026-04-11 11:01 36.49709 -4.42016 3725 ft 265 kts 107°
2026-04-11 11:02 36.49026 -4.39888 3283 ft 266 kts 119°
2026-04-11 11:02 36.47944 -4.38039 2935 ft 262 kts 118°
2026-04-11 11:02 36.47404 -4.35943 2680 ft 250 kts 91°
2026-04-11 11:02 36.47696 -4.33889 2504 ft 236 kts 63°
2026-04-11 11:03 36.48593 -4.32283 2366 ft 224 kts 45°
2026-04-11 11:03 36.49830 -4.31228 2204 ft 211 kts 17°
2026-04-11 11:03 36.51231 -4.31149 2053 ft 200 kts 346°
2026-04-11 11:03 36.52564 -4.31634 1955 ft 199 kts 345°
2026-04-11 11:04 36.53898 -4.32107 1958 ft 199 kts 345°
2026-04-11 11:04 36.55145 -4.32850 1973 ft 201 kts 325°
2026-04-11 11:04 36.56192 -4.34005 1977 ft 201 kts 315°
2026-04-11 11:04 36.57093 -4.35343 1939 ft 201 kts 313°
2026-04-11 11:05 36.58023 -4.36650 1874 ft 199 kts 313°
2026-04-11 11:05 36.58894 -4.37871 1861 ft 184 kts 313°
2026-04-11 11:05 36.59745 -4.39062 1819 ft 184 kts 313°
2026-04-11 11:05 36.60558 -4.40200 1741 ft 171 kts 313°
2026-04-11 11:06 36.61327 -4.41276 1578 ft 163 kts 313°
2026-04-11 11:06 36.62075 -4.42323 1375 ft 161 kts 313°
2026-04-11 11:06 36.62805 -4.43346 1185 ft 153 kts 313°
2026-04-11 11:06 36.63458 -4.44261 996 ft 136 kts 314°
2026-04-11 11:07 36.64088 -4.45143 806 ft 136 kts 313°
2026-04-11 11:07 36.64720 -4.46026 622 ft 137 kts 313°
2026-04-11 11:07 36.65360 -4.46916 439 ft 138 kts 312°
2026-04-11 11:07 36.66001 -4.47815 273 ft 138 kts 311°
2026-04-11 11:08 36.66638 -4.48717 84 ft 139 kts 312°
2026-04-11 11:08 36.67225 -4.49537 53 ft 105 kts 312°
2026-04-11 11:08 36.67591 -4.50048 52 ft 38 kts 315°
2026-04-11 11:08 36.67780 -4.50216 53 ft 32 kts 341°
2026-04-11 11:09 36.67872 -4.50149 48 ft 22 kts 132°
2026-04-11 11:09 36.67769 -4.50003 49 ft 23 kts 133°
2026-04-11 11:09 36.67657 -4.49850 49 ft 25 kts 129°
2026-04-11 11:09 36.67561 -4.49710 48 ft 10 kts 117°
2026-04-11 11:10 36.67584 -4.49626 47 ft 7 kts 86°
2026-04-11 11:10 36.67623 -4.49574 47 ft 9 kts 41°
2026-04-11 11:10 36.67669 -4.49524 47 ft 6 kts 41°
2026-04-11 11:10 36.67683 -4.49509 47 ft 0 kts 44°